RYR004 LFLL-EDDN
Flight info
| Callsign | RYR004 |
|---|---|
| Flight time | N/A |
| Altitude | 30000 |
| Route | BELUS8S BELUS Z87 SOPLO N871 DITON T163 ZUE T125 ROMIR N851 ESULI Y710 SUDEN Z79 GUPIN N869 DINKU DCT LETKU LETKU1T |
| Aircraft | B738/M-SDE2E3FGHIRWXY/LB1 |
Departure
| Time | N/A |
|---|---|
| Airport | Lyon Saint-Exupéry Airport (LFLL) |
Arrival
| Time | 2026-04-28 16:27 |
|---|---|
| Airport | Nuremberg Airport (EDDN) |
| Time | Latitude | Longitude | Altitude | Speed | Heading |
|---|---|---|---|---|---|
| 2026-04-28 15:55 | 49.47629 | 10.50151 | 6186 ft | 219 kts | 344° |
| 2026-04-28 15:56 | 49.48975 | 10.49581 | 6161 ft | 199 kts | 0° |
| 2026-04-28 15:56 | 49.50256 | 10.49711 | 6178 ft | 174 kts | 15° |
| 2026-04-28 15:56 | 49.51397 | 10.50027 | 6027 ft | 166 kts | 15° |
| 2026-04-28 15:57 | 49.52544 | 10.50249 | 5843 ft | 166 kts | 7° |
| 2026-04-28 15:57 | 49.53697 | 10.50223 | 5836 ft | 167 kts | 4° |
| 2026-04-28 15:57 | 49.54872 | 10.50172 | 5836 ft | 169 kts | 4° |
| 2026-04-28 15:57 | 49.56038 | 10.50127 | 5834 ft | 169 kts | 4° |
| 2026-04-28 15:58 | 49.57212 | 10.50077 | 5842 ft | 168 kts | 4° |
| 2026-04-28 15:58 | 49.58384 | 10.50027 | 5856 ft | 168 kts | 4° |
| 2026-04-28 15:58 | 49.59557 | 10.49966 | 5866 ft | 169 kts | 0° |
| 2026-04-28 15:58 | 49.60644 | 10.49278 | 5869 ft | 180 kts | 323° |
| 2026-04-28 15:59 | 49.61488 | 10.47822 | 5873 ft | 182 kts | 314° |
| 2026-04-28 15:59 | 49.62305 | 10.46323 | 5870 ft | 182 kts | 315° |
| 2026-04-28 15:59 | 49.63123 | 10.44843 | 5873 ft | 182 kts | 315° |
| 2026-04-28 15:59 | 49.63724 | 10.43119 | 5868 ft | 188 kts | 282° |
| 2026-04-28 16:00 | 49.63528 | 10.41165 | 5871 ft | 190 kts | 239° |
| 2026-04-28 16:00 | 49.62595 | 10.39804 | 5886 ft | 184 kts | 206° |
| 2026-04-28 16:00 | 49.61438 | 10.39072 | 5867 ft | 176 kts | 177° |
| 2026-04-28 16:00 | 49.60387 | 10.39701 | 5855 ft | 161 kts | 124° |
| 2026-04-28 16:01 | 49.60149 | 10.41289 | 5868 ft | 156 kts | 80° |
| 2026-04-28 16:01 | 49.60357 | 10.42905 | 5906 ft | 154 kts | 82° |
| 2026-04-28 16:01 | 49.60450 | 10.44553 | 5901 ft | 155 kts | 87° |
| 2026-04-28 16:01 | 49.60451 | 10.46208 | 5898 ft | 155 kts | 91° |
| 2026-04-28 16:02 | 49.60360 | 10.47866 | 5901 ft | 155 kts | 96° |
| 2026-04-28 16:02 | 49.60170 | 10.49505 | 5907 ft | 157 kts | 101° |
| 2026-04-28 16:02 | 49.59869 | 10.51125 | 5905 ft | 157 kts | 106° |
| 2026-04-28 16:02 | 49.59460 | 10.52680 | 5908 ft | 158 kts | 112° |
| 2026-04-28 16:03 | 49.58935 | 10.54156 | 5909 ft | 159 kts | 118° |
| 2026-04-28 16:03 | 49.58246 | 10.55530 | 5910 ft | 162 kts | 128° |
| 2026-04-28 16:03 | 49.57477 | 10.56789 | 5913 ft | 161 kts | 129° |
| 2026-04-28 16:03 | 49.56713 | 10.58047 | 5910 ft | 161 kts | 128° |
| 2026-04-28 16:04 | 49.55954 | 10.59297 | 5902 ft | 161 kts | 128° |
| 2026-04-28 16:04 | 49.55202 | 10.60539 | 5676 ft | 156 kts | 127° |
| 2026-04-28 16:04 | 49.54620 | 10.61950 | 5256 ft | 157 kts | 110° |
| 2026-04-28 16:04 | 49.54253 | 10.63509 | 4910 ft | 154 kts | 103° |
| 2026-04-28 16:05 | 49.54010 | 10.65095 | 4572 ft | 153 kts | 97° |
| 2026-04-28 16:05 | 49.53840 | 10.66699 | 4234 ft | 151 kts | 95° |
| 2026-04-28 16:05 | 49.53690 | 10.68265 | 4147 ft | 149 kts | 95° |
| 2026-04-28 16:05 | 49.53539 | 10.69857 | 4161 ft | 152 kts | 95° |
| 2026-04-28 16:06 | 49.53412 | 10.71495 | 4221 ft | 161 kts | 92° |
| 2026-04-28 16:06 | 49.53291 | 10.73229 | 4553 ft | 163 kts | 95° |
| 2026-04-28 16:06 | 49.53128 | 10.74903 | 4492 ft | 155 kts | 96° |
| 2026-04-28 16:06 | 49.52953 | 10.76515 | 4488 ft | 151 kts | 96° |
| 2026-04-28 16:07 | 49.52783 | 10.78136 | 4467 ft | 152 kts | 96° |
| 2026-04-28 16:07 | 49.52614 | 10.79743 | 4469 ft | 153 kts | 96° |
| 2026-04-28 16:07 | 49.52490 | 10.82945 | 4461 ft | 150 kts | 91° |
| 2026-04-28 16:08 | 49.52376 | 10.84503 | 4239 ft | 147 kts | 95° |
| 2026-04-28 16:08 | 49.52211 | 10.86049 | 3796 ft | 152 kts | 96° |
| 2026-04-28 16:08 | 49.52039 | 10.87636 | 3430 ft | 150 kts | 96° |
| 2026-04-28 16:09 | 49.51714 | 10.90626 | 3136 ft | 136 kts | 95° |
| 2026-04-28 16:09 | 49.51564 | 10.92022 | 2862 ft | 133 kts | 95° |
| 2026-04-28 16:09 | 49.51418 | 10.93386 | 2649 ft | 132 kts | 96° |
| 2026-04-28 16:10 | 49.51124 | 10.96137 | 2275 ft | 134 kts | 97° |
| 2026-04-28 16:10 | 49.50974 | 10.97550 | 2095 ft | 134 kts | 97° |
| 2026-04-28 16:10 | 49.50664 | 11.00367 | 1747 ft | 138 kts | 98° |
| 2026-04-28 16:11 | 49.50365 | 11.03207 | 1389 ft | 137 kts | 98° |
| 2026-04-28 16:13 | 49.49555 | 11.11586 | 1786 ft | 156 kts | 92° |
| 2026-04-28 16:14 | 49.48518 | 11.21298 | 2985 ft | 182 kts | 96° |
| 2026-04-28 16:15 | 49.48459 | 11.21892 | 3006 ft | 186 kts | 96° |
| 2026-04-28 16:15 | 49.48254 | 11.23946 | 2995 ft | 190 kts | 95° |
| 2026-04-28 16:16 | 49.46987 | 11.27214 | 3295 ft | 204 kts | 139° |
| 2026-04-28 16:16 | 49.45725 | 11.28190 | 3565 ft | 210 kts | 155° |
| 2026-04-28 16:17 | 49.42834 | 11.27656 | 3961 ft | 226 kts | 210° |
| 2026-04-28 16:17 | 49.41698 | 11.26008 | 3964 ft | 227 kts | 232° |
| 2026-04-28 16:17 | 49.40931 | 11.23929 | 3966 ft | 228 kts | 239° |
| 2026-04-28 16:17 | 49.40182 | 11.21915 | 3950 ft | 228 kts | 250° |
| 2026-04-28 16:18 | 49.40093 | 11.19737 | 3965 ft | 223 kts | 284° |
| 2026-04-28 16:18 | 49.40533 | 11.17495 | 3974 ft | 224 kts | 290° |
| 2026-04-28 16:18 | 49.40887 | 11.15153 | 3971 ft | 224 kts | 281° |
| 2026-04-28 16:18 | 49.41053 | 11.12803 | 3966 ft | 226 kts | 276° |
| 2026-04-28 16:19 | 49.41156 | 11.10410 | 3962 ft | 226 kts | 275° |
| 2026-04-28 16:19 | 49.41256 | 11.08019 | 3962 ft | 226 kts | 276° |
| 2026-04-28 16:19 | 49.41362 | 11.05609 | 3971 ft | 226 kts | 276° |
| 2026-04-28 16:19 | 49.41472 | 11.03192 | 3976 ft | 227 kts | 276° |
| 2026-04-28 16:20 | 49.41582 | 11.00772 | 3975 ft | 227 kts | 276° |
| 2026-04-28 16:20 | 49.41691 | 10.98395 | 3973 ft | 226 kts | 276° |
| 2026-04-28 16:20 | 49.41800 | 10.95983 | 3975 ft | 226 kts | 276° |
| 2026-04-28 16:20 | 49.41909 | 10.93590 | 3976 ft | 227 kts | 276° |
| 2026-04-28 16:21 | 49.42018 | 10.91162 | 3975 ft | 227 kts | 276° |
| 2026-04-28 16:21 | 49.42127 | 10.88747 | 3977 ft | 226 kts | 276° |
| 2026-04-28 16:21 | 49.42234 | 10.86358 | 3983 ft | 226 kts | 276° |
| 2026-04-28 16:21 | 49.42343 | 10.83930 | 3973 ft | 227 kts | 276° |
| 2026-04-28 16:22 | 49.42583 | 10.81560 | 3971 ft | 223 kts | 292° |
| 2026-04-28 16:22 | 49.43479 | 10.79730 | 3978 ft | 213 kts | 329° |
| 2026-04-28 16:22 | 49.44809 | 10.78881 | 3973 ft | 206 kts | 353° |
| 2026-04-28 16:22 | 49.46209 | 10.78727 | 3970 ft | 202 kts | 7° |
| 2026-04-28 16:23 | 49.47563 | 10.79139 | 3969 ft | 198 kts | 20° |
| 2026-04-28 16:23 | 49.48895 | 10.79767 | 3972 ft | 199 kts | 21° |
| 2026-04-28 16:23 | 49.50201 | 10.80365 | 3975 ft | 197 kts | 22° |
| 2026-04-28 16:23 | 49.51427 | 10.81300 | 3939 ft | 194 kts | 42° |
| 2026-04-28 16:24 | 49.52063 | 10.82942 | 3859 ft | 176 kts | 78° |
| 2026-04-28 16:24 | 49.52083 | 10.84740 | 3857 ft | 171 kts | 92° |
| 2026-04-28 16:24 | 49.52021 | 10.86526 | 3739 ft | 174 kts | 89° |
| 2026-04-28 16:24 | 49.51940 | 10.88347 | 3552 ft | 168 kts | 93° |
| 2026-04-28 16:25 | 49.51779 | 10.90098 | 3243 ft | 169 kts | 96° |
| 2026-04-28 16:25 | 49.51590 | 10.91848 | 2930 ft | 169 kts | 96° |
| 2026-04-28 16:25 | 49.51390 | 10.93599 | 2739 ft | 165 kts | 96° |
| 2026-04-28 16:25 | 49.51211 | 10.95327 | 2778 ft | 167 kts | 95° |
| 2026-04-28 16:26 | 49.51029 | 10.97086 | 2804 ft | 166 kts | 96° |
| 2026-04-28 16:26 | 49.50836 | 10.98842 | 2671 ft | 173 kts | 99° |
| 2026-04-28 16:26 | 49.50509 | 11.00633 | 2128 ft | 174 kts | 96° |
| 2026-04-28 16:26 | 49.50377 | 11.02470 | 1580 ft | 174 kts | 94° |
| 2026-04-28 16:27 | 49.50227 | 11.04243 | 1274 ft | 160 kts | 99° |
| 2026-04-28 16:27 | 49.50062 | 11.05828 | 1100 ft | 143 kts | 97° |
| 2026-04-28 16:27 | 49.49876 | 11.07726 | 1026 ft | 0 kts | 97° |
| 2026-04-28 16:30 | 49.49876 | 11.07727 | 1026 ft | 0 kts | 98° |
| 2026-04-28 16:30 | 49.49876 | 11.07726 | 1026 ft | 0 kts | 98° |
| 2026-04-28 16:30 | 49.49550 | 11.07340 | 1018 ft | 0 kts | 98° |